Terminal Aerodrome Forecast
Issued by NWS

Home | Current Version | Previous Version | Text Only | Print | Product List | Glossary On
Versions: 1 2 3 4 5 6 7 8 9 10 11 12 13 14 15 16 17 18 19 20 21 22 23 24
827
FTUS45 KREV 071739
TAFTVL
TAF
KTVL 071739Z 0718/0818 05005KT P6SM SCT025 OVC150
     FM072200 05006KT P6SM VCSH SCT025 OVC050
     FM080000 17006KT 3SM -SN SCT010 OVC025
      TEMPO 0800/0804 1SM -SN OVC010
     FM081200 19010KT 3SM -SNRA OVC025
     FM081400 19015G22KT 6SM -RASN BKN025 OVC040=

USA.gov is the U.S. government's official web portal to all federal, state and local government web resources and services.